Time;durP1;ratioP1;P1;durP2;ratioP2;P2;SDS_P1;SDS_P2;PMS_P1;PMS_P2;Temp;Humidity;BMP_temperature;BMP_pressure;BME280_temperature;BME280_humidity;BME280_pressure;Samples;Min_cycle;Max_cycle;Signal;HPM_P1;HPM_P2
2023/04/15 00:00:50;;;;;;;13.75;6.30;;;5.90;99.90;;;;;;4989806;28;20042;-73
2023/04/15 00:05:51;;;;;;;16.30;6.30;;;5.80;99.90;;;;;;4645810;23;20038;-72
2023/04/15 00:08:17;;;;;;;11.85;6.38;;;5.80;99.90;;;;;;4958306;28;20039;-72
2023/04/15 00:10:45;;;;;;;13.20;6.25;;;5.80;99.90;;;;;;4965767;28;20035;-72
2023/04/15 00:13:11;;;;;;;15.18;6.25;;;5.80;99.90;;;;;;4965817;28;20055;-73
2023/04/15 00:15:36;;;;;;;12.52;5.63;;;5.80;99.90;;;;;;4965205;28;20053;-72
2023/04/15 00:18:03;;;;;;;16.13;6.60;;;5.80;99.90;;;;;;4966219;28;20035;-73
2023/04/15 00:20:28;;;;;;;18.27;6.43;;;5.80;99.90;;;;;;4964172;28;20058;-72
2023/04/15 00:22:54;;;;;;;14.23;6.35;;;5.80;99.90;;;;;;4936359;28;20039;-72
2023/04/15 00:25:20;;;;;;;10.95;6.60;;;5.70;99.90;;;;;;4979887;28;20050;-72
2023/04/15 00:27:45;;;;;;;11.77;5.82;;;5.70;99.90;;;;;;4961178;28;20046;-72
2023/04/15 00:30:11;;;;;;;13.35;6.28;;;5.70;99.90;;;;;;4967744;28;20046;-72
2023/04/15 00:32:37;;;;;;;14.65;6.78;;;5.60;99.90;;;;;;4966631;28;20122;-72
2023/04/15 00:35:03;;;;;;;13.05;6.40;;;5.60;99.90;;;;;;4978771;28;20093;-73
2023/04/15 00:37:29;;;;;;;13.80;7.07;;;5.60;99.90;;;;;;4964698;28;20577;-72
2023/04/15 00:39:55;;;;;;;11.95;6.70;;;5.60;99.90;;;;;;4965302;28;20055;-73
2023/04/15 00:42:23;;;;;;;11.98;6.05;;;5.60;99.90;;;;;;4967224;28;20098;-73
2023/04/15 00:44:52;;;;;;;13.85;6.78;;;5.60;99.90;;;;;;4955598;28;20078;-72
2023/04/15 00:47:18;;;;;;;17.55;7.97;;;5.60;99.90;;;;;;4932327;28;20134;-72
2023/04/15 00:49:44;;;;;;;12.07;6.65;;;5.60;99.90;;;;;;4970473;28;20097;-73
2023/04/15 00:52:09;;;;;;;12.85;6.45;;;5.60;99.90;;;;;;4968336;28;20046;-73
2023/04/15 00:54:36;;;;;;;12.77;6.68;;;5.60;99.90;;;;;;4964731;28;20079;-73
2023/04/15 00:57:05;;;;;;;12.15;6.68;;;5.50;99.90;;;;;;4960517;28;20043;-73
2023/04/15 00:59:32;;;;;;;14.60;7.05;;;5.50;99.90;;;;;;4949904;28;20133;-72
2023/04/15 01:01:58;;;;;;;15.90;7.03;;;5.50;99.90;;;;;;4971119;28;20051;-71
2023/04/15 01:04:24;;;;;;;13.10;7.45;;;5.50;99.90;;;;;;4970187;28;20085;-71
2023/04/15 01:06:50;;;;;;;14.55;7.13;;;5.40;99.90;;;;;;4953884;28;20046;-73
2023/04/15 01:09:17;;;;;;;18.40;7.45;;;5.50;99.90;;;;;;4971130;28;20191;-71
2023/04/15 01:11:43;;;;;;;15.65;7.97;;;5.50;99.90;;;;;;4959817;28;20034;-72
2023/04/15 01:14:10;;;;;;;16.48;7.22;;;5.40;99.90;;;;;;4969238;28;20038;-72
2023/04/15 01:16:38;;;;;;;14.25;7.88;;;5.40;99.90;;;;;;4969327;28;20042;-72
2023/04/15 01:19:07;;;;;;;15.18;7.90;;;5.40;99.90;;;;;;4935575;28;20050;-72
2023/04/15 01:21:37;;;;;;;14.65;7.40;;;5.30;99.90;;;;;;4966753;28;20137;-72
2023/04/15 01:24:12;;;;;;;13.55;7.40;;;5.30;99.90;;;;;;4951964;28;20042;-72
2023/04/15 01:26:39;;;;;;;14.45;8.45;;;5.30;99.90;;;;;;4952794;28;20051;-71
2023/04/15 01:29:05;;;;;;;20.17;8.35;;;5.30;99.90;;;;;;4974976;28;20044;-72
2023/04/15 01:31:37;;;;;;;16.73;8.70;;;5.30;99.90;;;;;;4971721;28;20498;-73
2023/04/15 01:34:03;;;;;;;15.20;8.52;;;5.30;99.90;;;;;;4973168;28;20054;-72
2023/04/15 01:36:29;;;;;;;20.25;8.85;;;5.30;99.90;;;;;;4972365;28;20525;-71
2023/04/15 01:38:56;;;;;;;19.10;10.20;;;5.30;99.90;;;;;;4973399;28;20046;-72
2023/04/15 01:41:27;;;;;;;14.63;8.68;;;5.30;99.90;;;;;;4939037;28;20070;-71
2023/04/15 01:43:53;;;;;;;19.02;9.20;;;5.30;99.90;;;;;;4971261;28;20042;-72
2023/04/15 01:46:22;;;;;;;17.30;9.40;;;5.30;99.90;;;;;;4957663;28;20049;-72
2023/04/15 01:48:48;;;;;;;17.30;8.55;;;5.20;99.90;;;;;;4949662;28;20046;-71
2023/04/15 01:51:14;;;;;;;15.57;9.13;;;5.20;99.90;;;;;;4938110;28;20038;-72
2023/04/15 01:53:39;;;;;;;16.02;9.00;;;5.20;99.90;;;;;;4973572;28;20035;-72
2023/04/15 01:56:06;;;;;;;16.92;9.95;;;5.20;99.90;;;;;;4968957;28;20050;-72
2023/04/15 01:58:31;;;;;;;18.50;10.02;;;5.20;99.90;;;;;;4954611;28;20063;-72
2023/04/15 02:00:57;;;;;;;22.55;10.38;;;5.20;99.90;;;;;;4971103;28;20524;-73
2023/04/15 02:03:24;;;;;;;16.40;9.45;;;5.30;99.90;;;;;;4952594;28;20456;-73
2023/04/15 02:05:50;;;;;;;19.23;9.85;;;5.20;99.90;;;;;;4987448;28;20470;-72
2023/04/15 02:08:16;;;;;;;20.92;10.48;;;5.30;99.90;;;;;;4990695;28;20129;-73
2023/04/15 02:10:42;;;;;;;17.70;9.90;;;5.30;99.90;;;;;;4998758;28;20117;-71
2023/04/15 02:13:08;;;;;;;20.77;10.20;;;5.30;99.90;;;;;;4998746;28;20453;-72
2023/04/15 02:15:34;;;;;;;19.48;10.60;;;5.20;99.90;;;;;;4993588;28;20535;-71
2023/04/15 02:18:00;;;;;;;17.77;9.88;;;5.20;99.90;;;;;;4991158;28;20054;-72
2023/04/15 02:20:26;;;;;;;21.88;10.93;;;5.10;99.90;;;;;;4991599;28;20049;-71
2023/04/15 02:22:52;;;;;;;20.73;10.90;;;5.10;99.90;;;;;;4994304;28;20035;-71
2023/04/15 02:25:19;;;;;;;19.10;10.85;;;5.10;99.90;;;;;;4995116;28;20038;-73
2023/04/15 02:27:48;;;;;;;17.80;10.63;;;5.10;99.90;;;;;;4964875;28;20141;-73
2023/04/15 02:30:13;;;;;;;24.55;11.43;;;5.10;99.90;;;;;;4977848;28;20696;-72
2023/04/15 02:32:40;;;;;;;24.65;11.63;;;5.10;99.90;;;;;;4965323;28;20039;-72
2023/04/15 02:35:07;;;;;;;23.02;12.30;;;5.10;99.90;;;;;;4972909;28;20054;-72
2023/04/15 02:37:39;;;;;;;20.77;11.10;;;5.10;99.90;;;;;;4971545;28;20505;-72
2023/04/15 02:40:10;;;;;;;19.23;11.27;;;5.10;99.90;;;;;;4985770;28;20039;-72
2023/04/15 02:42:37;;;;;;;17.05;10.50;;;5.00;99.90;;;;;;4977730;28;20042;-72
2023/04/15 02:45:04;;;;;;;21.42;11.32;;;5.00;99.90;;;;;;4975714;28;20035;-71
2023/04/15 02:47:30;;;;;;;18.75;10.68;;;5.00;99.90;;;;;;4979037;28;20513;-72
2023/04/15 02:49:57;;;;;;;18.80;11.07;;;5.00;99.90;;;;;;4977028;28;20057;-73
2023/04/15 02:52:23;;;;;;;22.05;11.75;;;4.90;99.90;;;;;;4974439;28;20489;-73
2023/04/15 02:54:49;;;;;;;22.05;11.27;;;5.00;99.90;;;;;;4976715;28;20561;-72
2023/04/15 02:57:18;;;;;;;18.85;11.65;;;5.00;99.90;;;;;;4957824;28;20529;-72
2023/04/15 02:59:43;;;;;;;25.10;12.98;;;4.90;99.90;;;;;;4973307;28;20047;-72
2023/04/15 03:02:09;;;;;;;18.33;11.63;;;4.90;99.90;;;;;;4976304;28;20078;-72
2023/04/15 03:04:35;;;;;;;22.92;12.65;;;4.90;99.90;;;;;;4974700;28;20048;-73
2023/04/15 03:07:01;;;;;;;19.02;12.05;;;4.90;99.90;;;;;;4973868;28;20050;-75
2023/04/15 03:09:26;;;;;;;21.67;12.35;;;4.90;99.90;;;;;;4992398;28;20113;-72
2023/04/15 03:11:53;;;;;;;16.90;11.82;;;4.90;99.90;;;;;;4974705;28;20493;-71
2023/04/15 03:14:22;;;;;;;20.45;11.43;;;4.90;99.90;;;;;;4963383;28;20112;-72
2023/04/15 03:16:49;;;;;;;19.30;11.55;;;4.90;99.90;;;;;;4986212;28;20612;-72
2023/04/15 03:19:22;;;;;;;19.38;11.18;;;4.90;99.90;;;;;;4958705;28;20046;-72
2023/04/15 03:21:47;;;;;;;20.00;12.32;;;4.90;99.90;;;;;;4955596;28;20061;-72
2023/04/15 03:24:13;;;;;;;22.35;12.32;;;4.90;99.90;;;;;;4985335;28;20038;-73
2023/04/15 03:26:39;;;;;;;18.73;11.90;;;4.90;99.90;;;;;;4984360;28;20054;-72
2023/04/15 03:29:07;;;;;;;19.42;12.20;;;4.90;99.90;;;;;;4986288;28;20042;-73
2023/04/15 03:31:33;;;;;;;19.48;11.50;;;4.90;99.90;;;;;;4974039;28;20056;-72
2023/04/15 03:33:59;;;;;;;21.67;12.60;;;4.90;99.90;;;;;;4979343;28;20122;-72
2023/04/15 03:36:25;;;;;;;23.30;13.40;;;4.90;99.90;;;;;;4954532;28;20639;-73
2023/04/15 03:38:50;;;;;;;21.52;12.75;;;4.90;99.90;;;;;;4962032;28;20096;-72
2023/04/15 03:41:16;;;;;;;23.48;12.73;;;4.90;99.90;;;;;;4966282;28;20050;-72
2023/04/15 03:43:42;;;;;;;22.20;12.32;;;4.80;99.90;;;;;;4969855;28;20514;-72
2023/04/15 03:46:07;;;;;;;26.63;14.13;;;4.80;99.90;;;;;;4984255;28;20051;-73
2023/04/15 03:48:33;;;;;;;20.67;13.55;;;4.80;99.90;;;;;;4978978;28;20532;-73
2023/04/15 03:51:00;;;;;;;23.23;15.15;;;4.70;99.90;;;;;;4965753;28;20567;-73
2023/04/15 03:53:25;;;;;;;20.63;13.45;;;4.80;99.90;;;;;;4965197;28;20054;-72
2023/04/15 03:55:51;;;;;;;24.27;13.93;;;4.70;99.90;;;;;;4980067;28;20417;-73
2023/04/15 03:58:17;;;;;;;23.70;13.68;;;4.70;99.90;;;;;;4966875;28;20047;-72
2023/04/15 04:00:43;;;;;;;22.88;14.02;;;4.70;99.90;;;;;;4949426;28;20057;-73
2023/04/15 04:03:09;;;;;;;24.08;14.40;;;4.70;99.90;;;;;;4966576;28;20042;-73
2023/04/15 04:05:37;;;;;;;24.92;14.10;;;4.60;99.90;;;;;;4982353;28;20093;-72
2023/04/15 04:08:03;;;;;;;24.08;13.77;;;4.60;99.90;;;;;;4977497;28;20125;-72
2023/04/15 04:10:29;;;;;;;23.48;13.32;;;4.70;99.90;;;;;;4978213;28;20041;-72
2023/04/15 04:12:54;;;;;;;21.33;14.45;;;4.60;99.90;;;;;;4986517;28;20130;-72
2023/04/15 04:15:20;;;;;;;23.67;14.25;;;4.70;99.90;;;;;;4966281;28;20492;-72
2023/04/15 04:17:46;;;;;;;23.73;14.77;;;4.60;99.90;;;;;;4971690;28;20055;-73
2023/04/15 04:20:12;;;;;;;23.67;14.45;;;4.60;99.90;;;;;;4967616;28;20054;-73
2023/04/15 04:22:39;;;;;;;24.60;14.63;;;4.60;99.90;;;;;;4967178;28;20049;-73
2023/04/15 04:25:07;;;;;;;22.83;14.63;;;4.60;99.90;;;;;;4986208;28;20047;-73
2023/04/15 04:27:33;;;;;;;23.20;13.05;;;4.60;99.90;;;;;;4967367;28;20133;-72
2023/04/15 04:29:59;;;;;;;25.38;14.80;;;4.50;99.90;;;;;;4985529;28;20042;-72
2023/04/15 04:32:25;;;;;;;25.63;14.80;;;4.50;99.90;;;;;;4966866;28;20134;-72
2023/04/15 04:34:54;;;;;;;21.65;13.45;;;4.60;99.90;;;;;;4983510;28;20140;-72
2023/04/15 04:37:20;;;;;;;22.88;14.02;;;4.60;99.90;;;;;;4981319;28;20057;-72
2023/04/15 04:39:45;;;;;;;25.45;14.43;;;4.50;99.90;;;;;;4984748;28;20042;-72
2023/04/15 04:42:11;;;;;;;24.00;14.55;;;4.50;99.90;;;;;;4963400;28;20546;-71
2023/04/15 04:44:36;;;;;;;19.98;13.40;;;4.60;99.90;;;;;;4985798;28;20038;-72
2023/04/15 04:47:02;;;;;;;25.80;15.50;;;4.50;99.90;;;;;;4985104;28;20039;-71
2023/04/15 04:49:28;;;;;;;21.50;13.70;;;4.50;99.90;;;;;;4964098;28;20047;-71
2023/04/15 04:51:54;;;;;;;24.83;15.13;;;4.50;99.90;;;;;;4963625;28;20053;-71
2023/04/15 04:54:20;;;;;;;21.80;13.40;;;4.60;99.90;;;;;;4985490;28;20031;-72
2023/04/15 04:56:48;;;;;;;22.42;13.85;;;4.60;99.90;;;;;;4984525;28;20039;-72
2023/04/15 04:59:14;;;;;;;21.88;14.15;;;4.60;99.90;;;;;;4985126;28;20132;-72
2023/04/15 05:01:40;;;;;;;21.42;13.45;;;4.50;99.90;;;;;;4950304;28;20350;-72
2023/04/15 05:04:06;;;;;;;22.08;13.70;;;4.50;99.90;;;;;;4985145;28;20084;-73
2023/04/15 05:06:32;;;;;;;20.48;13.30;;;4.60;99.90;;;;;;4982149;28;20038;-72
2023/04/15 05:08:58;;;;;;;23.35;14.07;;;4.50;99.90;;;;;;4967228;28;20400;-72
2023/04/15 05:11:23;;;;;;;24.38;14.77;;;4.60;99.90;;;;;;4980333;28;20782;-72
2023/04/15 05:13:49;;;;;;;22.38;14.13;;;4.60;99.90;;;;;;4984121;28;20042;-72
2023/04/15 05:16:15;;;;;;;23.50;14.38;;;4.60;99.90;;;;;;4961303;28;20047;-72
2023/04/15 05:18:41;;;;;;;23.23;14.68;;;4.70;99.90;;;;;;4977861;28;20513;-72
2023/04/15 05:21:07;;;;;;;25.67;15.90;;;4.70;99.90;;;;;;4966150;28;20136;-72
2023/04/15 05:23:33;;;;;;;23.95;14.77;;;4.80;99.90;;;;;;4981699;28;20467;-71
2023/04/15 05:25:58;;;;;;;23.13;14.50;;;4.80;99.90;;;;;;4966043;28;20112;-72
2023/04/15 05:28:24;;;;;;;23.48;14.98;;;4.90;99.90;;;;;;4966779;28;20038;-71
2023/04/15 05:30:50;;;;;;;24.27;16.00;;;5.00;99.90;;;;;;4965407;28;20129;-72
2023/04/15 05:33:16;;;;;;;21.70;14.93;;;5.10;99.90;;;;;;4979720;28;20081;-72
2023/04/15 05:35:42;;;;;;;23.02;15.18;;;5.10;99.90;;;;;;4965581;28;20042;-72
2023/04/15 05:38:07;;;;;;;22.90;14.48;;;5.20;99.90;;;;;;4949456;28;20552;-72
2023/04/15 05:40:33;;;;;;;21.38;13.68;;;5.30;99.90;;;;;;4983743;28;20050;-71
2023/04/15 05:42:59;;;;;;;23.30;14.07;;;5.40;99.90;;;;;;4948596;28;20116;-72
2023/04/15 05:45:25;;;;;;;20.58;13.02;;;5.50;99.90;;;;;;4981008;28;20082;-73
2023/04/15 05:47:54;;;;;;;23.13;14.05;;;5.60;99.90;;;;;;4967011;28;20061;-72
2023/04/15 05:50:20;;;;;;;22.92;14.50;;;5.70;99.90;;;;;;4980499;28;20213;-72
2023/04/15 05:52:46;;;;;;;22.05;13.50;;;5.90;99.90;;;;;;4978069;28;20046;-71
2023/04/15 05:55:11;;;;;;;16.75;12.23;;;6.00;99.90;;;;;;4959824;28;20047;-72
2023/04/15 05:57:37;;;;;;;22.85;14.10;;;6.20;99.90;;;;;;4951385;28;20092;-73
2023/04/15 06:00:04;;;;;;;18.58;12.75;;;6.30;99.90;;;;;;4965960;28;20061;-76
2023/04/15 06:02:30;;;;;;;19.67;12.82;;;6.50;99.90;;;;;;4964163;28;20185;-76
2023/04/15 06:04:56;;;;;;;18.85;12.63;;;6.60;99.90;;;;;;4964728;28;20133;-76
2023/04/15 06:07:22;;;;;;;15.40;11.00;;;6.80;99.90;;;;;;4984254;28;20050;-78
2023/04/15 06:09:48;;;;;;;17.45;10.98;;;7.00;99.90;;;;;;4979572;28;20045;-76
2023/04/15 06:12:15;;;;;;;16.50;11.13;;;7.20;99.90;;;;;;4985130;28;20038;-76
2023/04/15 06:14:41;;;;;;;16.10;11.07;;;7.40;99.90;;;;;;4978686;28;20058;-77
2023/04/15 06:17:07;;;;;;;15.85;10.65;;;7.70;99.90;;;;;;4966246;28;20038;-77
2023/04/15 06:19:33;;;;;;;13.60;9.65;;;7.90;99.90;;;;;;4965760;28;20520;-78
2023/04/15 06:22:00;;;;;;;14.77;9.48;;;8.20;99.90;;;;;;4984130;28;20030;-78
2023/04/15 06:24:25;;;;;;;13.30;9.05;;;8.40;99.90;;;;;;4984067;28;20048;-77
2023/04/15 06:26:51;;;;;;;15.00;10.10;;;8.60;99.90;;;;;;4968375;28;20061;-77
2023/04/15 06:29:17;;;;;;;15.68;10.32;;;8.80;99.90;;;;;;4982724;28;20177;-77
2023/04/15 06:31:42;;;;;;;14.10;9.57;;;8.90;99.90;;;;;;4984464;28;20044;-77
2023/04/15 06:34:08;;;;;;;13.93;10.48;;;9.00;99.90;;;;;;4988164;28;20486;-76
2023/04/15 06:36:34;;;;;;;13.35;10.43;;;9.00;99.90;;;;;;4986407;28;20046;-76
2023/04/15 06:39:00;;;;;;;12.68;8.98;;;9.10;99.90;;;;;;4980245;28;20035;-76
2023/04/15 06:41:25;;;;;;;13.20;8.77;;;9.10;99.90;;;;;;4981833;28;20045;-81
2023/04/15 06:43:51;;;;;;;13.50;9.68;;;9.10;99.90;;;;;;4982842;28;20075;-76
2023/04/15 06:46:17;;;;;;;13.07;8.98;;;9.10;99.90;;;;;;4965700;28;20494;-76
2023/04/15 06:48:43;;;;;;;13.45;9.50;;;9.10;99.90;;;;;;4987404;28;20034;-77
2023/04/15 06:51:09;;;;;;;14.02;9.38;;;9.10;99.90;;;;;;4986284;28;20410;-77
2023/04/15 06:53:39;;;;;;;16.92;10.30;;;9.00;99.90;;;;;;4985562;28;20482;-77
2023/04/15 06:56:06;;;;;;;13.20;9.05;;;9.00;99.90;;;;;;4989347;28;20465;-77
2023/04/15 06:58:32;;;;;;;13.43;9.43;;;9.00;99.90;;;;;;4992083;28;20046;-77
2023/04/15 07:00:58;;;;;;;15.82;9.65;;;9.10;99.90;;;;;;4987429;28;20043;-77
2023/04/15 07:03:26;;;;;;;15.90;10.85;;;9.20;99.90;;;;;;4987879;28;20050;-78
2023/04/15 07:05:52;;;;;;;15.10;10.20;;;9.20;99.90;;;;;;4990003;28;20038;-78
2023/04/15 07:08:23;;;;;;;14.98;9.95;;;9.20;99.90;;;;;;4955142;28;20603;-76
2023/04/15 07:10:49;;;;;;;14.48;8.77;;;9.30;99.90;;;;;;4974624;28;20041;-77
2023/04/15 07:13:14;;;;;;;14.93;9.45;;;9.30;99.90;;;;;;4972828;28;20050;-77
2023/04/15 07:15:44;;;;;;;15.95;9.85;;;9.40;99.90;;;;;;4951312;28;20042;-77
2023/04/15 07:18:10;;;;;;;13.95;9.93;;;9.40;99.90;;;;;;4967654;28;20042;-78
2023/04/15 07:20:38;;;;;;;13.80;10.70;;;9.40;99.90;;;;;;4971777;28;20456;-79
2023/04/15 07:23:04;;;;;;;13.77;9.93;;;9.50;99.90;;;;;;4970768;28;20492;-78
2023/04/15 07:25:30;;;;;;;18.65;10.25;;;9.50;99.90;;;;;;4973740;28;20070;-77
2023/04/15 07:27:55;;;;;;;12.95;8.70;;;9.50;99.90;;;;;;4954095;28;20105;-78
2023/04/15 07:30:22;;;;;;;15.02;9.70;;;9.60;99.90;;;;;;4973907;28;20618;-78
2023/04/15 07:32:47;;;;;;;12.85;9.00;;;9.80;99.90;;;;;;4973499;28;20096;-79
2023/04/15 07:35:17;;;;;;;10.40;7.63;;;9.90;99.90;;;;;;4986215;28;20073;-78
2023/04/15 07:37:42;;;;;;;15.65;8.82;;;10.20;99.90;;;;;;4987940;28;20042;-80
2023/04/15 07:40:08;;;;;;;9.73;7.15;;;10.30;99.90;;;;;;4970713;28;20039;-80
2023/04/15 07:42:35;;;;;;;9.80;6.93;;;10.40;99.90;;;;;;4974460;28;20038;-80
2023/04/15 07:45:01;;;;;;;10.23;6.22;;;10.60;99.90;;;;;;4986833;28;20046;-78
2023/04/15 07:47:26;;;;;;;11.30;6.13;;;10.70;99.90;;;;;;4972942;28;20096;-78
2023/04/15 07:49:52;;;;;;;16.08;6.38;;;10.80;99.90;;;;;;4989185;28;20046;-78
2023/04/15 07:52:18;;;;;;;6.65;5.20;;;10.80;99.90;;;;;;4985694;28;20046;-80
2023/04/15 07:54:44;;;;;;;7.93;4.65;;;10.90;99.90;;;;;;4972760;28;20038;-79
2023/04/15 07:57:10;;;;;;;7.63;4.55;;;10.90;99.90;;;;;;4973896;28;20688;-80
2023/04/15 07:59:35;;;;;;;8.98;4.80;;;10.90;99.90;;;;;;4974461;28;20038;-79
2023/04/15 08:02:02;;;;;;;8.05;4.93;;;10.90;99.90;;;;;;4955881;28;20066;-76
2023/04/15 08:04:27;;;;;;;8.20;4.63;;;10.90;99.90;;;;;;4990110;28;20163;-78
2023/04/15 08:06:53;;;;;;;8.07;4.85;;;10.80;99.90;;;;;;4973160;28;20080;-79
2023/04/15 08:09:19;;;;;;;7.18;4.85;;;10.70;99.90;;;;;;4972744;28;22170;-79
2023/04/15 08:11:48;;;;;;;9.63;5.10;;;10.60;99.90;;;;;;4971994;28;20043;-78
2023/04/15 08:14:13;;;;;;;5.55;3.97;;;10.60;99.90;;;;;;4989776;28;20441;-80
2023/04/15 08:16:39;;;;;;;6.10;4.18;;;10.50;99.90;;;;;;4990143;28;20043;-80
2023/04/15 08:19:05;;;;;;;6.85;4.60;;;10.50;99.90;;;;;;4988409;28;20153;-80
2023/04/15 08:21:31;;;;;;;6.22;4.30;;;10.50;99.90;;;;;;4990089;28;20390;-81
2023/04/15 08:23:56;;;;;;;7.20;3.95;;;10.50;99.90;;;;;;4973116;28;20047;-82
2023/04/15 08:26:22;;;;;;;6.57;3.67;;;10.40;99.90;;;;;;4987444;28;20050;-80
2023/04/15 08:28:48;;;;;;;7.32;3.78;;;10.30;99.90;;;;;;4987402;28;20039;-80
2023/04/15 08:31:15;;;;;;;4.93;3.60;;;10.30;99.90;;;;;;4988612;28;20061;-80
2023/04/15 08:33:41;;;;;;;7.38;3.95;;;10.30;99.90;;;;;;4973604;28;20065;-80
2023/04/15 08:36:07;;;;;;;6.20;3.70;;;10.30;99.90;;;;;;4988682;28;20787;-79
2023/04/15 08:38:33;;;;;;;8.70;3.63;;;10.30;99.90;;;;;;4990769;28;20449;-80
2023/04/15 08:41:06;;;;;;;5.68;4.05;;;10.40;99.90;;;;;;4990315;28;20105;-79
2023/04/15 08:43:39;;;;;;;7.63;4.03;;;10.50;99.90;;;;;;4973650;28;20127;-81
2023/04/15 08:46:06;;;;;;;6.25;4.35;;;10.50;99.90;;;;;;4984934;28;20045;-80
2023/04/15 08:48:33;;;;;;;7.00;4.20;;;10.60;99.90;;;;;;4986913;28;20049;-81
2023/04/15 08:51:00;;;;;;;5.43;3.63;;;10.60;99.90;;;;;;4972005;28;20034;-80
2023/04/15 08:53:27;;;;;;;5.80;3.75;;;10.60;99.90;;;;;;4989811;28;20115;-80
2023/04/15 08:55:56;;;;;;;8.18;4.72;;;10.60;99.90;;;;;;4990480;28;20105;-80
2023/04/15 08:58:23;;;;;;;8.73;4.78;;;10.60;99.90;;;;;;4969360;28;20046;-82
2023/04/15 09:00:49;;;;;;;8.77;5.32;;;10.50;99.90;;;;;;4979652;28;20061;-81
2023/04/15 09:03:16;;;;;;;8.95;5.22;;;10.50;99.90;;;;;;4969860;28;20073;-80
2023/04/15 09:05:42;;;;;;;12.65;5.80;;;10.50;99.90;;;;;;4989188;28;20114;-81
2023/04/15 09:08:08;;;;;;;9.60;5.60;;;10.40;99.90;;;;;;4988742;28;20145;-82
2023/04/15 09:10:33;;;;;;;9.38;4.78;;;10.30;99.90;;;;;;4989395;28;20042;-80
2023/04/15 09:13:00;;;;;;;8.05;4.05;;;10.30;99.90;;;;;;4961472;28;20040;-82
2023/04/15 09:15:28;;;;;;;9.57;4.10;;;10.20;99.90;;;;;;4989915;28;20042;-81
2023/04/15 09:17:54;;;;;;;9.65;4.20;;;10.20;99.90;;;;;;4953943;28;20046;-82
2023/04/15 09:20:23;;;;;;;5.88;3.63;;;10.20;99.90;;;;;;4970238;28;20080;-81
2023/04/15 09:22:53;;;;;;;6.75;3.50;;;10.20;99.90;;;;;;4971762;28;20042;-81
2023/04/15 09:25:23;;;;;;;10.02;4.25;;;10.20;99.90;;;;;;4989067;28;20050;-80
2023/04/15 09:27:53;;;;;;;6.40;3.28;;;10.20;99.90;;;;;;4988638;28;20074;-80
2023/04/15 09:30:19;;;;;;;7.35;3.47;;;10.20;99.90;;;;;;4967508;28;20638;-85
2023/04/15 09:32:57;;;;;;;5.05;3.13;;;10.40;99.90;;;;;;4963671;28;20058;-84
2023/04/15 09:35:25;;;;;;;7.82;3.53;;;10.60;99.90;;;;;;4967313;28;20053;-82
2023/04/15 09:38:00;;;;;;;6.00;3.22;;;10.60;99.90;;;;;;4973173;28;20337;-82
2023/04/15 09:40:40;;;;;;;7.97;2.67;;;10.60;99.90;;;;;;4958356;28;20034;-82
2023/04/15 09:43:07;;;;;;;5.65;2.50;;;10.50;99.90;;;;;;4983277;28;20050;-82
2023/04/15 09:45:34;;;;;;;5.82;2.55;;;10.50;99.90;;;;;;4986355;28;20046;-83
2023/04/15 09:48:16;;;;;;;5.78;2.75;;;10.70;99.90;;;;;;4955444;28;20078;-84
2023/04/15 09:50:42;;;;;;;6.30;2.55;;;10.90;99.90;;;;;;4985410;28;20047;-84
2023/04/15 09:53:26;;;;;;;5.25;2.45;;;11.10;99.90;;;;;;4965778;28;20061;-83
2023/04/15 09:55:57;;;;;;;6.93;2.40;;;11.30;99.90;;;;;;4967611;28;20042;-81
2023/04/15 09:58:24;;;;;;;4.30;2.20;;;11.40;99.90;;;;;;4962216;28;20050;-84
2023/04/15 10:00:52;;;;;;;7.53;2.88;;;11.40;99.90;;;;;;4967271;28;20042;-82
2023/04/15 10:03:30;;;;;;;7.57;2.70;;;11.50;99.90;;;;;;4945198;28;20138;-82
2023/04/15 10:05:58;;;;;;;4.82;2.60;;;11.60;99.90;;;;;;4964538;28;21000;-82
2023/04/15 10:08:28;;;;;;;4.13;2.20;;;11.70;99.90;;;;;;4966908;28;20457;-83
2023/04/15 10:10:55;;;;;;;6.75;2.10;;;11.70;99.90;;;;;;4969834;28;20034;-84
2023/04/15 10:13:24;;;;;;;4.95;2.00;;;11.80;99.90;;;;;;4990137;28;20053;-82
2023/04/15 10:15:58;;;;;;;3.83;1.70;;;11.70;99.90;;;;;;4987395;28;20047;-82
2023/04/15 10:18:27;;;;;;;4.95;2.13;;;11.70;99.90;;;;;;4968814;28;20147;-79
2023/04/15 10:20:54;;;;;;;5.40;1.60;;;11.80;99.90;;;;;;4988065;28;20137;-82
2023/04/15 10:23:24;;;;;;;4.63;1.60;;;11.80;99.90;;;;;;4967499;28;20055;-82
2023/04/15 10:25:54;;;;;;;3.83;1.80;;;11.80;99.90;;;;;;4941198;28;20129;-81
2023/04/15 10:28:23;;;;;;;4.43;1.70;;;11.80;99.90;;;;;;4964023;28;20776;-81
2023/04/15 10:30:52;;;;;;;5.85;1.90;;;11.70;99.90;;;;;;4972856;28;20043;-82
2023/04/15 10:33:23;;;;;;;4.45;1.90;;;11.70;99.90;;;;;;4993144;28;20527;-81
2023/04/15 10:35:53;;;;;;;5.43;1.70;;;11.70;99.90;;;;;;4989088;28;20042;-81
2023/04/15 10:38:38;;;;;;;2.50;1.50;;;11.60;99.90;;;;;;4972270;28;20097;-78
2023/04/15 10:41:16;;;;;;;7.03;1.73;;;11.50;99.90;;;;;;4957864;28;20046;-81
2023/04/15 10:44:14;;;;;;;3.33;1.50;;;11.50;99.90;;;;;;4969103;28;20055;-80
2023/04/15 10:46:44;;;;;;;8.55;1.95;;;11.60;99.90;;;;;;4953196;28;20049;-80
2023/04/15 10:49:12;;;;;;;4.57;2.15;;;11.50;99.90;;;;;;4984234;28;20356;-79
2023/04/15 10:51:44;;;;;;;4.10;1.88;;;11.40;99.90;;;;;;4967083;28;20057;-79
2023/04/15 10:54:23;;;;;;;3.85;1.83;;;11.30;99.90;;;;;;4986980;28;20045;-80
2023/04/15 10:57:07;;;;;;;3.92;1.67;;;11.20;99.90;;;;;;4989197;28;20054;-80
2023/04/15 10:59:58;;;;;;;5.20;1.60;;;11.20;99.90;;;;;;4966747;28;20702;-79
2023/04/15 11:02:48;;;;;;;3.70;1.20;;;11.40;99.90;;;;;;4952087;28;20041;-78
2023/04/15 11:05:15;;;;;;;3.25;1.70;;;11.30;99.90;;;;;;4967401;28;20100;-80
2023/04/15 11:07:50;;;;;;;4.78;1.75;;;11.40;99.90;;;;;;4986487;28;20521;-78
2023/04/15 11:10:24;;;;;;;6.82;1.52;;;11.40;99.90;;;;;;4967086;28;20050;-80
2023/04/15 11:13:04;;;;;;;3.65;1.85;;;11.50;99.90;;;;;;4974973;28;20096;-78
2023/04/15 11:15:45;;;;;;;4.25;1.70;;;11.40;99.90;;;;;;4987146;28;20057;-81
2023/04/15 11:18:23;;;;;;;6.47;2.20;;;11.30;99.90;;;;;;4984900;28;20137;-80
2023/04/15 11:21:00;;;;;;;7.82;2.72;;;11.20;99.90;;;;;;4965272;28;20061;-80
2023/04/15 11:23:36;;;;;;;6.97;2.10;;;11.00;99.90;;;;;;4968990;28;20104;-80
2023/04/15 11:26:07;;;;;;;7.85;2.45;;;10.90;99.90;;;;;;4967516;28;20047;-80
2023/04/15 11:28:33;;;;;;;6.00;1.88;;;10.80;99.90;;;;;;4986859;28;20046;-82
2023/04/15 11:31:12;;;;;;;4.55;2.03;;;10.70;99.90;;;;;;4969513;28;20046;-81
2023/04/15 11:33:46;;;;;;;5.57;1.80;;;10.70;99.90;;;;;;4988821;28;20105;-82
2023/04/15 11:36:13;;;;;;;4.38;1.77;;;10.60;99.90;;;;;;4986384;28;20046;-81
2023/04/15 11:38:42;;;;;;;7.70;1.95;;;10.60;99.90;;;;;;4956389;28;20089;-83
2023/04/15 11:41:08;;;;;;;5.95;1.50;;;10.60;99.90;;;;;;4965902;28;20117;-78
2023/04/15 11:43:34;;;;;;;6.10;1.80;;;10.50;99.90;;;;;;4970338;28;20051;-79
2023/04/15 11:46:02;;;;;;;4.20;1.73;;;10.50;99.90;;;;;;4970318;28;20058;-79
2023/04/15 11:48:29;;;;;;;5.22;1.50;;;10.40;99.90;;;;;;4956091;28;20054;-79
2023/04/15 11:51:00;;;;;;;7.35;2.10;;;10.50;99.90;;;;;;4970447;28;20051;-80
2023/04/15 11:53:46;;;;;;;2.30;1.20;;;10.50;99.90;;;;;;4953862;28;20541;-80
2023/04/15 11:56:26;;;;;;;6.32;1.70;;;10.60;99.90;;;;;;4969842;28;20473;-79
2023/04/15 11:58:59;;;;;;;4.20;1.50;;;10.50;99.90;;;;;;4964337;28;20050;-79
2023/04/15 12:01:38;;;;;;;5.88;1.58;;;10.50;99.90;;;;;;4978574;28;20064;-80
2023/04/15 12:04:19;;;;;;;4.18;1.60;;;10.70;99.90;;;;;;4979147;28;20518;-79
2023/04/15 12:06:45;;;;;;;5.47;2.40;;;10.70;99.90;;;;;;4941776;28;20051;-79
2023/04/15 12:09:15;;;;;;;8.05;2.20;;;10.70;99.90;;;;;;4947599;28;20149;-79
2023/04/15 12:11:48;;;;;;;6.22;1.38;;;10.70;99.90;;;;;;4940567;28;20050;-79
2023/04/15 12:14:17;;;;;;;;;;;10.60;99.90;;;;;;4924038;28;20035;-79
2023/04/15 12:16:53;;;;;;;4.32;1.50;;;10.60;99.90;;;;;;4930944;28;19929;-76
2023/04/15 12:19:31;;;;;;;6.20;1.88;;;10.60;99.90;;;;;;4941136;28;20551;-76
2023/04/15 12:22:01;;;;;;;8.25;2.05;;;10.50;99.90;;;;;;4961124;28;20047;-76
2023/04/15 12:24:29;;;;;;;8.60;2.10;;;10.50;99.90;;;;;;4947058;28;20706;-76
2023/04/15 12:26:56;;;;;;;11.88;2.05;;;10.50;99.90;;;;;;4942960;28;20041;-76
2023/04/15 12:29:27;;;;;;;6.65;1.67;;;10.30;99.90;;;;;;4958865;28;20502;-78
2023/04/15 12:31:53;;;;;;;6.85;1.95;;;10.30;99.90;;;;;;4962433;28;20733;-76
2023/04/15 12:34:52;;;;;;;5.43;1.40;;;10.20;99.90;;;;;;4945785;28;20050;-76
2023/04/15 12:37:18;;;;;;;6.40;1.55;;;10.30;99.90;;;;;;4956575;28;20043;-76
2023/04/15 12:39:47;;;;;;;6.18;1.50;;;10.30;99.90;;;;;;4959030;28;20100;-76
2023/04/15 12:42:14;;;;;;;6.22;1.40;;;10.20;99.90;;;;;;4960442;28;20073;-78
2023/04/15 12:44:40;;;;;;;10.38;1.83;;;10.20;99.90;;;;;;4956797;28;20055;-77
2023/04/15 12:47:08;;;;;;;9.65;2.20;;;10.10;99.90;;;;;;4965334;28;20598;-76
2023/04/15 12:49:34;;;;;;;9.82;2.33;;;10.00;99.90;;;;;;4969091;28;20384;-77